createdAt,value
2022-10-01T00:01:23.089Z,100262.56
2022-10-01T00:03:55.566Z,100268.66
2022-10-01T00:06:25.215Z,100242.44
2022-10-01T00:08:55.128Z,100230.22
2022-10-01T00:11:27.832Z,100242.47
2022-10-01T00:13:57.668Z,100230.22
2022-10-01T00:16:31.227Z,100219.72
2022-10-01T00:19:03.843Z,100213.59
2022-10-01T00:21:34.944Z,100202.25
2022-10-01T00:24:07.158Z,100201.38
2022-10-01T00:26:39.575Z,100193.53
2022-10-01T00:29:11.230Z,100197.88
2022-10-01T00:31:41.469Z,100175.16
2022-10-01T00:34:15.941Z,100158.53
2022-10-01T00:36:46.442Z,100162.91
2022-10-01T00:39:16.188Z,100148.94
2022-10-01T00:41:46.540Z,100138.44
2022-10-01T00:44:36.589Z,100162.91
2022-10-01T00:47:12.120Z,100150.66
2022-10-01T00:49:46.607Z,100134.06
2022-10-01T00:52:23.543Z,100131.44
2022-10-01T00:54:57.967Z,100116.59
2022-10-01T00:57:30.450Z,100097.38
2022-10-01T01:00:04.561Z,100116.59
2022-10-01T01:02:34.566Z,100105.22
2022-10-01T01:05:08.930Z,100101.75
2022-10-01T01:07:39.502Z,100103.50
2022-10-01T01:10:11.080Z,100106.13
2022-10-01T01:12:52.530Z,100105.25
2022-10-01T01:15:28.670Z,100105.25
2022-10-01T01:18:08.953Z,100091.25
2022-10-01T01:21:02.768Z,100096.50
2022-10-01T01:23:50.293Z,100112.25
2022-10-01T01:26:32.188Z,100093.88
2022-10-01T01:29:09.584Z,100095.63
2022-10-01T01:31:43.019Z,100079.91
2022-10-01T01:34:15.972Z,100091.25
2022-10-01T01:36:51.531Z,100068.53
2022-10-01T01:39:23.284Z,100072.91
2022-10-01T01:41:57.466Z,100088.66
2022-10-01T01:44:35.603Z,100074.66
2022-10-01T01:47:06.843Z,100074.66
2022-10-01T01:49:36.869Z,100083.41
2022-10-01T01:52:13.475Z,100082.53
2022-10-01T01:54:44.407Z,100081.66
2022-10-01T01:57:15.898Z,100074.66
2022-10-01T01:59:49.084Z,100079.03
2022-10-01T02:02:22.900Z,100082.53
2022-10-01T02:04:57.372Z,100090.38
2022-10-01T02:07:43.010Z,100082.53
2022-10-01T02:10:24.348Z,100074.66
2022-10-01T02:13:07.828Z,100072.03
2022-10-01T02:15:51.820Z,100074.66
2022-10-01T02:18:29.623Z,100097.38
2022-10-01T02:21:09.852Z,100072.91
2022-10-01T02:23:46.590Z,100077.28
2022-10-01T02:26:20.747Z,100077.25
2022-10-01T02:28:53.896Z,100084.25
2022-10-01T02:31:26.865Z,100079.00
2022-10-01T02:33:58.690Z,100060.63
2022-10-01T02:36:30.306Z,100053.63
2022-10-01T02:39:01.738Z,100071.13
2022-10-01T02:41:36.923Z,100069.34
2022-10-01T02:44:10.255Z,100043.09
2022-10-01T02:46:48.892Z,100060.59
2022-10-01T02:49:18.944Z,100066.72
2022-10-01T02:51:57.104Z,100058.78
2022-10-01T02:54:31.852Z,100071.97
2022-10-01T02:57:14.345Z,100071.03
2022-10-01T02:59:44.482Z,100061.41
2022-10-01T03:02:16.803Z,100067.50
2022-10-01T03:04:48.058Z,100061.38
2022-10-01T03:07:18.686Z,100055.22
2022-10-01T03:09:49.403Z,100067.47
2022-10-01T03:12:19.590Z,100059.59
2022-10-01T03:14:49.530Z,100063.97
2022-10-01T03:17:21.795Z,100056.09
2022-10-01T03:19:51.492Z,100061.31
2022-10-01T03:22:22.913Z,100063.94
2022-10-01T03:24:52.758Z,100064.84
2022-10-01T03:27:22.550Z,100064.84
2022-10-01T03:29:52.257Z,100063.94
2022-10-01T03:32:25.062Z,100066.53
2022-10-01T03:34:54.651Z,100066.53
2022-10-01T03:37:24.235Z,100064.75
2022-10-01T03:39:53.882Z,100070.00
2022-10-01T03:42:23.489Z,100077.00
2022-10-01T03:44:53.176Z,100076.09
2022-10-01T03:47:26.238Z,100081.34
2022-10-01T03:49:55.868Z,100087.47
2022-10-01T03:52:25.586Z,100093.59
2022-10-01T03:54:55.210Z,100097.97
2022-10-01T03:57:24.794Z,100092.72
2022-10-01T03:59:54.474Z,100097.06
2022-10-01T04:02:27.896Z,100098.81
2022-10-01T04:04:57.588Z,100111.94
2022-10-01T04:07:27.385Z,100106.69
2022-10-01T04:09:56.940Z,100111.94
2022-10-01T04:12:26.742Z,100111.06
2022-10-01T04:14:56.391Z,100111.94
2022-10-01T04:17:28.492Z,100120.72
2022-10-01T04:20:00.525Z,100120.72
2022-10-01T04:22:30.351Z,100128.59
2022-10-01T04:24:59.915Z,100130.34
2022-10-01T04:27:29.489Z,100127.72
2022-10-01T04:29:59.115Z,100139.13
2022-10-01T04:32:33.652Z,100143.50
2022-10-01T04:35:04.646Z,100138.25
2022-10-01T04:37:34.299Z,100148.75
2022-10-01T04:40:04.654Z,100145.25
2022-10-01T04:42:34.616Z,100154.03
2022-10-01T04:45:04.444Z,100143.50
2022-10-01T04:47:37.694Z,100154.03
2022-10-01T04:50:08.360Z,100162.78
2022-10-01T04:52:38.000Z,100169.81
2022-10-01T04:55:08.639Z,100166.31
2022-10-01T04:57:38.757Z,100168.09
2022-10-01T05:00:10.937Z,100176.88
2022-10-01T05:02:43.556Z,100185.66
2022-10-01T05:05:13.373Z,100190.91
2022-10-01T05:07:43.400Z,100204.06
2022-10-01T05:10:16.362Z,100208.44
2022-10-01T05:12:46.613Z,100208.44
2022-10-01T05:15:17.275Z,100210.19
2022-10-01T05:17:49.985Z,100213.69
2022-10-01T05:20:21.484Z,100216.31
2022-10-01T05:22:52.243Z,100224.22
2022-10-01T05:25:23.213Z,100222.47
2022-10-01T05:27:53.150Z,100224.19
2022-10-01T05:30:24.355Z,100233.84
2022-10-01T05:33:02.358Z,100231.19
2022-10-01T05:35:32.829Z,100241.72
2022-10-01T05:38:04.658Z,100237.34
2022-10-01T05:40:34.467Z,100236.47
2022-10-01T05:43:04.509Z,100237.34
2022-10-01T05:45:35.891Z,100242.59
2022-10-01T05:48:10.439Z,100247.88
2022-10-01T05:50:42.557Z,100245.22
2022-10-01T05:53:16.290Z,100251.34
2022-10-01T05:55:45.758Z,100246.09
2022-10-01T05:58:17.474Z,100242.59
2022-10-01T06:00:47.308Z,100254.84
2022-10-01T06:03:19.801Z,100261.84
2022-10-01T06:05:49.436Z,100268.84
2022-10-01T06:08:19.614Z,100264.47
2022-10-01T06:10:49.327Z,100266.22
2022-10-01T06:13:19.490Z,100278.47
2022-10-01T06:15:49.531Z,100274.97
2022-10-01T06:18:21.937Z,100276.75
2022-10-01T06:20:51.757Z,100272.38
2022-10-01T06:23:21.522Z,100281.16
2022-10-01T06:25:51.439Z,100282.00
2022-10-01T06:28:21.250Z,100279.38
2022-10-01T06:30:51.006Z,100284.63
2022-10-01T06:33:23.991Z,100285.50
2022-10-01T06:35:54.825Z,100286.38
2022-10-01T06:38:26.483Z,100284.59
2022-10-01T06:40:57.107Z,100285.50
2022-10-01T06:43:28.154Z,100292.50
2022-10-01T06:45:58.626Z,100290.75
2022-10-01T06:48:31.602Z,100294.25
2022-10-01T06:51:01.895Z,100303.00
2022-10-01T06:53:31.981Z,100303.00
2022-10-01T06:56:07.382Z,100305.63
2022-10-01T06:58:37.647Z,100303.84
2022-10-01T07:01:07.358Z,100305.59
2022-10-01T07:03:39.564Z,100309.06
2022-10-01T07:06:11.443Z,100316.91
2022-10-01T07:08:41.061Z,100312.50
2022-10-01T07:11:10.750Z,100317.75
2022-10-01T07:13:40.553Z,100311.56
2022-10-01T07:16:10.250Z,100326.44
2022-10-01T07:18:42.570Z,100322.03
2022-10-01T07:21:12.364Z,100325.47
2022-10-01T07:23:42.058Z,100330.72
2022-10-01T07:26:11.722Z,100323.63
2022-10-01T07:28:41.392Z,100331.41
2022-10-01T07:31:12.844Z,100335.66
2022-10-01T07:33:45.618Z,100333.81
2022-10-01T07:36:16.205Z,100338.94
2022-10-01T07:38:47.255Z,100336.09
2022-10-01T07:41:17.562Z,100344.69
2022-10-01T07:43:49.901Z,100343.88
2022-10-01T07:46:19.653Z,100349.22
2022-10-01T07:48:54.242Z,100361.59
2022-10-01T07:51:24.676Z,100362.50
2022-10-01T07:53:54.219Z,100370.41
2022-10-01T07:56:23.982Z,100373.16
2022-10-01T07:58:57.798Z,100376.72
2022-10-01T08:01:28.385Z,100383.75
2022-10-01T08:04:00.704Z,100388.00
2022-10-01T08:06:30.697Z,100398.31
2022-10-01T08:09:00.458Z,100402.38
2022-10-01T08:11:30.099Z,100394.13
2022-10-01T08:13:59.658Z,100391.38
2022-10-01T08:16:33.599Z,100413.63
2022-10-01T08:19:07.172Z,100422.63
2022-10-01T08:21:37.598Z,100413.88
2022-10-01T08:24:07.829Z,100414.72
2022-10-01T08:26:38.123Z,100419.03
2022-10-01T08:29:07.647Z,100427.88
2022-10-01T08:31:38.076Z,100428.78
2022-10-01T08:34:10.461Z,100430.53
2022-10-01T08:36:40.033Z,100438.44
2022-10-01T08:39:09.717Z,100439.34
2022-10-01T08:41:52.365Z,100445.47
2022-10-01T08:44:27.926Z,100443.66
2022-10-01T08:47:02.024Z,100448.94
2022-10-01T08:49:42.242Z,100460.94
2022-10-01T08:52:21.407Z,100463.41
2022-10-01T08:54:55.368Z,100455.19
2022-10-01T08:57:31.431Z,100452.75
2022-10-01T09:00:03.235Z,100463.91
2022-10-01T09:02:35.344Z,100475.63
2022-10-01T09:05:11.064Z,100479.88
2022-10-01T09:08:01.047Z,100488.63
2022-10-01T09:10:42.438Z,100489.66
2022-10-01T09:13:50.224Z,100497.41
2022-10-01T09:16:27.601Z,100495.56
2022-10-01T09:19:10.730Z,100498.41
2022-10-01T09:21:57.309Z,100515.31
2022-10-01T09:24:41.207Z,100512.75
2022-10-01T09:27:14.673Z,100532.28
2022-10-01T09:29:51.286Z,100520.47
2022-10-01T09:32:25.875Z,100526.44
2022-10-01T09:35:04.515Z,100526.13
2022-10-01T09:37:46.124Z,100526.28
2022-10-01T09:40:23.030Z,100532.59
2022-10-01T09:42:53.763Z,100533.66
2022-10-01T09:45:24.752Z,100539.88
2022-10-01T09:47:57.849Z,100544.56
2022-10-01T09:50:33.271Z,100556.53
2022-10-01T09:53:05.976Z,100554.50
2022-10-01T09:55:40.747Z,100551.94
2022-10-01T09:58:16.104Z,100564.28
2022-10-01T10:00:48.445Z,100570.56
2022-10-01T10:03:27.586Z,100572.97
2022-10-01T10:05:57.671Z,100578.06
2022-10-01T10:08:33.030Z,100570.53
2022-10-01T10:11:06.091Z,100583.63
2022-10-01T10:13:39.460Z,100581.34
2022-10-01T10:16:12.705Z,100588.63
2022-10-01T10:18:43.740Z,100589.25
2022-10-01T10:21:19.647Z,100602.84
2022-10-01T10:23:54.797Z,100606.66
2022-10-01T10:26:32.865Z,100612.72
2022-10-01T10:29:04.526Z,100608.28
2022-10-01T10:31:43.663Z,100615.75
2022-10-01T10:34:19.237Z,100616.44
2022-10-01T10:36:53.517Z,100624.19
2022-10-01T10:39:29.439Z,100624.25
2022-10-01T10:42:00.617Z,100624.97
2022-10-01T10:44:36.317Z,100644.59
2022-10-01T10:47:08.998Z,100635.66
2022-10-01T10:49:46.781Z,100647.72
2022-10-01T10:52:26.112Z,100649.31
2022-10-01T10:54:59.672Z,100654.41
2022-10-01T10:57:30.771Z,100649.53
2022-10-01T11:00:02.180Z,100660.59
2022-10-01T11:02:33.854Z,100675.75
2022-10-01T11:05:07.383Z,100689.50
2022-10-01T11:07:36.939Z,100684.22
2022-10-01T11:10:31.019Z,100697.00
2022-10-01T11:13:14.870Z,100699.41
2022-10-01T11:16:25.256Z,100714.28
2022-10-01T11:19:07.832Z,100701.72
2022-10-01T11:22:03.556Z,100707.22
2022-10-01T11:24:51.915Z,100704.28
2022-10-01T11:27:32.317Z,100708.09
2022-10-01T11:30:09.666Z,100716.50
2022-10-01T11:32:42.368Z,100717.59
2022-10-01T11:35:42.285Z,100730.66
2022-10-01T11:38:28.391Z,100737.38
2022-10-01T11:41:06.706Z,100749.53
2022-10-01T11:43:44.486Z,100744.25
2022-10-01T11:46:20.058Z,100737.25
2022-10-01T11:48:53.918Z,100754.47
2022-10-01T11:51:32.083Z,100759.09
2022-10-01T11:54:06.970Z,100751.03
2022-10-01T11:56:54.013Z,100755.34
2022-10-01T11:59:29.577Z,100758.56
2022-10-01T12:02:10.359Z,100768.94
2022-10-01T12:04:43.397Z,100771.78
2022-10-01T12:07:18.186Z,100765.75
2022-10-01T12:09:59.655Z,100766.84
2022-10-01T12:12:34.587Z,100778.53
2022-10-01T12:15:15.391Z,100779.41
2022-10-01T12:17:52.290Z,100781.22
2022-10-01T12:20:29.326Z,100780.38
2022-10-01T12:23:01.141Z,100782.06
2022-10-01T12:25:40.708Z,100779.06
2022-10-01T12:28:15.744Z,100786.81
2022-10-01T12:30:55.995Z,100790.28
2022-10-01T12:33:54.334Z,100791.31
2022-10-01T12:36:32.812Z,100798.94
2022-10-01T12:39:15.562Z,100798.19
2022-10-01T12:41:55.629Z,100804.47
2022-10-01T12:44:39.554Z,100812.41
2022-10-01T12:47:26.303Z,100815.53
2022-10-01T12:50:05.303Z,100815.03
2022-10-01T12:52:47.038Z,100821.75
2022-10-01T12:55:34.395Z,100831.47
2022-10-01T12:58:17.374Z,100833.97
2022-10-01T13:00:58.688Z,100834.81
2022-10-01T13:03:59.859Z,100843.09
2022-10-01T13:06:47.915Z,100844.84
2022-10-01T13:09:25.358Z,100849.84
2022-10-01T13:12:11.755Z,100855.91
2022-10-01T13:14:44.557Z,100845.22
2022-10-01T13:17:32.637Z,100850.34
2022-10-01T13:20:22.287Z,100860.97
2022-10-01T13:23:13.586Z,100866.47
2022-10-01T13:25:51.470Z,100855.16
2022-10-01T13:28:30.063Z,100865.72
2022-10-01T13:31:02.799Z,100864.50
2022-10-01T13:33:36.260Z,100859.69
2022-10-01T13:36:10.793Z,100875.47
2022-10-01T13:38:46.241Z,100877.06
2022-10-01T13:41:23.316Z,100882.13
2022-10-01T13:43:59.768Z,100884.81
2022-10-01T13:46:33.427Z,100891.34
2022-10-01T13:49:08.494Z,100894.09
2022-10-01T13:51:43.086Z,100895.22
2022-10-01T13:54:25.179Z,100907.34
2022-10-01T13:56:55.141Z,100899.19
2022-10-01T13:59:35.816Z,100910.75
2022-10-01T14:02:06.350Z,100922.75
2022-10-01T14:04:40.629Z,100907.06
2022-10-01T14:07:22.666Z,100916.66
2022-10-01T14:09:55.649Z,100922.56
2022-10-01T14:12:44.717Z,100938.81
2022-10-01T14:15:33.932Z,100941.78
2022-10-01T14:18:07.052Z,100945.72
2022-10-01T14:20:51.763Z,100952.94
2022-10-01T14:23:32.998Z,100957.66
2022-10-01T14:26:10.124Z,100961.09
2022-10-01T14:28:51.637Z,100959.34
2022-10-01T14:31:31.085Z,100967.72
2022-10-01T14:34:23.602Z,100975.75
2022-10-01T14:36:55.643Z,100967.75
2022-10-01T14:39:29.895Z,100968.41
2022-10-01T14:42:01.541Z,100965.53
2022-10-01T14:44:33.104Z,100968.50
2022-10-01T14:47:03.382Z,100965.53
2022-10-01T14:49:34.631Z,100969.16
2022-10-01T14:52:07.066Z,100973.31
2022-10-01T14:54:45.479Z,100968.34
2022-10-01T14:57:21.246Z,100969.09
2022-10-01T14:59:51.513Z,100971.28
2022-10-01T15:02:23.525Z,100982.84
2022-10-01T15:04:55.314Z,100983.88
2022-10-01T15:07:27.164Z,100982.94
2022-10-01T15:10:09.082Z,100989.41
2022-10-01T15:12:43.334Z,100981.84
2022-10-01T15:15:21.715Z,100984.81
2022-10-01T15:17:52.448Z,100994.34
2022-10-01T15:20:22.575Z,100995.34
2022-10-01T15:23:01.033Z,100998.97
2022-10-01T15:25:46.955Z,100997.59
2022-10-01T15:28:49.413Z,101013.50
2022-10-01T15:31:29.023Z,101006.47
2022-10-01T15:34:08.674Z,101011.78
2022-10-01T15:36:45.493Z,101024.31
2022-10-01T15:39:31.660Z,101016.50
2022-10-01T15:42:33.354Z,101023.59
2022-10-01T15:45:31.800Z,101030.59
2022-10-01T15:48:11.750Z,101034.13
2022-10-01T15:50:46.275Z,101029.63
2022-10-01T15:56:17.450Z,101038.31
2022-10-01T15:58:53.323Z,101040.34
2022-10-01T16:01:26.084Z,101024.59
2022-10-01T16:03:58.777Z,101037.88
2022-10-01T16:06:32.058Z,101045.88
2022-10-01T16:09:05.365Z,101042.41
2022-10-01T16:11:36.192Z,101047.75
2022-10-01T16:14:36.766Z,101056.59
2022-10-01T16:17:36.238Z,101050.34
2022-10-01T16:20:49.099Z,101066.31
2022-10-01T16:23:44.568Z,101073.38
2022-10-01T16:26:47.046Z,101074.28
2022-10-01T16:29:27.930Z,101078.69
2022-10-01T16:31:59.558Z,101079.63
2022-10-01T16:34:29.546Z,101080.50
2022-10-01T16:36:59.176Z,101095.50
2022-10-01T16:39:28.968Z,101086.69
2022-10-01T16:42:19.480Z,101086.72
2022-10-01T16:44:51.024Z,101098.19
2022-10-01T16:47:20.887Z,101104.41
2022-10-01T16:49:52.644Z,101104.47
2022-10-01T16:52:22.287Z,101106.28
2022-10-01T16:54:51.825Z,101108.91
2022-10-01T16:57:21.372Z,101108.03
2022-10-01T16:59:53.790Z,101120.38
2022-10-01T17:02:23.529Z,101118.63
2022-10-01T17:04:53.368Z,101119.53
2022-10-01T17:07:22.943Z,101128.34
2022-10-01T17:09:52.557Z,101126.59
2022-10-01T17:12:30.605Z,101125.72
2022-10-01T17:15:06.594Z,101131.00
2022-10-01T17:17:46.329Z,101131.00
2022-10-01T17:20:26.220Z,101131.88
2022-10-01T17:23:09.237Z,101143.31
2022-10-01T17:25:43.328Z,101152.97
2022-10-01T17:28:17.684Z,101149.47
2022-10-01T17:30:56.359Z,101156.47
2022-10-01T17:33:26.724Z,101160.88
2022-10-01T17:35:56.385Z,101161.78
2022-10-01T17:38:29.475Z,101167.91
2022-10-01T17:40:59.133Z,101174.03
2022-10-01T17:43:28.998Z,101172.31
2022-10-01T17:46:15.031Z,101180.16
2022-10-01T17:48:44.712Z,101182.88
2022-10-01T17:51:16.000Z,101191.63
2022-10-01T17:53:56.708Z,101189.84
2022-10-01T17:56:26.324Z,101188.06
2022-10-01T17:58:56.105Z,101201.25
2022-10-01T18:01:29.601Z,101205.63
2022-10-01T18:04:24.940Z,101208.22
2022-10-01T18:07:01.632Z,101208.22
2022-10-01T18:09:37.496Z,101213.44
2022-10-01T18:12:08.006Z,101218.69
2022-10-01T18:14:38.566Z,101217.81
2022-10-01T18:17:16.774Z,101219.53
2022-10-01T18:19:54.038Z,101221.28
2022-10-01T18:22:24.135Z,101226.53
2022-10-01T18:24:54.056Z,101230.88
2022-10-01T18:27:24.180Z,101240.47
2022-10-01T18:29:53.739Z,101241.28
2022-10-01T18:32:32.065Z,101242.13
2022-10-01T18:35:17.447Z,101250.91
2022-10-01T18:37:52.784Z,101256.16
2022-10-01T18:40:24.121Z,101255.19
2022-10-01T18:42:58.719Z,101257.84
2022-10-01T18:45:44.366Z,101259.53
2022-10-01T18:48:39.150Z,101264.75
2022-10-01T18:51:21.390Z,101271.72
2022-10-01T18:54:19.721Z,101267.25
2022-10-01T18:57:22.566Z,101270.75
2022-10-01T19:00:10.369Z,101269.84
2022-10-01T19:03:05.979Z,101271.63
2022-10-01T19:05:56.838Z,101264.56
2022-10-01T19:08:41.807Z,101280.38
2022-10-01T19:11:18.572Z,101277.72
2022-10-01T19:13:55.299Z,101279.47
2022-10-01T19:16:42.017Z,101288.19
2022-10-01T19:19:28.050Z,101287.28
2022-10-01T19:22:03.660Z,101293.44
2022-10-01T19:25:15.727Z,101297.88
2022-10-01T19:27:57.257Z,101296.13
2022-10-01T19:30:27.056Z,101300.50
2022-10-01T19:33:04.693Z,101305.75
2022-10-01T19:35:39.064Z,101304.91
2022-10-01T19:38:20.324Z,101308.41
2022-10-01T19:40:55.656Z,101309.25
2022-10-01T19:43:30.790Z,101315.34
2022-10-01T19:46:08.827Z,101317.03
2022-10-01T19:48:51.099Z,101317.00
2022-10-01T19:51:24.071Z,101321.34
2022-10-01T19:54:01.621Z,101326.59
2022-10-01T19:56:33.475Z,101330.03
2022-10-01T19:59:09.621Z,101330.88
2022-10-01T20:01:42.263Z,101329.09
2022-10-01T20:04:21.440Z,101332.59
2022-10-01T20:07:07.742Z,101331.66
2022-10-01T20:09:48.387Z,101336.84
2022-10-01T20:12:27.416Z,101343.91
2022-10-01T20:15:11.910Z,101343.91
2022-10-01T20:18:04.512Z,101347.44
2022-10-01T20:20:41.929Z,101357.13
2022-10-01T20:23:32.106Z,101361.47
2022-10-01T20:26:14.443Z,101367.53
2022-10-01T20:28:52.137Z,101369.31
2022-10-01T20:31:27.132Z,101372.81
2022-10-01T20:34:04.534Z,101378.94
2022-10-01T20:36:41.386Z,101372.81
2022-10-01T20:39:18.930Z,101381.66
2022-10-01T20:41:54.489Z,101381.72
2022-10-01T20:44:28.860Z,101379.97
2022-10-01T20:47:05.051Z,101379.91
2022-10-01T20:49:44.201Z,101376.34
2022-10-01T20:52:20.883Z,101375.47
2022-10-01T20:54:54.637Z,101374.56
2022-10-01T20:57:31.565Z,101375.47
2022-10-01T21:00:08.474Z,101381.59
2022-10-01T21:02:47.230Z,101378.09
2022-10-01T21:05:23.549Z,101375.50
2022-10-01T21:07:59.183Z,101382.47
2022-10-01T21:10:37.559Z,101386.81
2022-10-01T21:13:19.218Z,101377.22
2022-10-01T21:16:00.771Z,101381.75
2022-10-01T21:18:45.627Z,101383.53
2022-10-01T21:21:27.710Z,101381.88
2022-10-01T21:24:16.054Z,101375.78
2022-10-01T21:26:59.406Z,101386.38
2022-10-01T21:29:55.922Z,101381.16
2022-10-01T21:32:35.854Z,101390.00
2022-10-01T21:35:18.300Z,101385.69
2022-10-01T21:38:02.974Z,101393.66
2022-10-01T21:40:43.175Z,101395.47
2022-10-01T21:43:23.889Z,101423.69
2022-10-01T21:46:07.562Z,101441.38
2022-10-01T21:48:47.903Z,101435.00
2022-10-01T21:51:21.295Z,101427.50
2022-10-01T21:54:09.054Z,101437.72
2022-10-01T21:57:11.093Z,101434.00
2022-10-01T22:00:07.254Z,101419.81
2022-10-01T22:02:49.283Z,101447.75
2022-10-01T22:05:25.317Z,101445.88
2022-10-01T22:08:03.391Z,101447.50
2022-10-01T22:10:39.803Z,101447.47
2022-10-01T22:13:16.854Z,101442.00
2022-10-01T22:15:48.268Z,101444.50
2022-10-01T22:18:27.512Z,101436.56
2022-10-01T22:21:00.918Z,101427.69
2022-10-01T22:23:34.833Z,101436.38
2022-10-01T22:26:18.967Z,101457.41
2022-10-01T22:28:53.130Z,101453.84
2022-10-01T22:31:28.567Z,101437.34
2022-10-01T22:34:05.842Z,101432.09
2022-10-01T22:36:41.902Z,101439.25
2022-10-01T22:39:15.713Z,101440.22
2022-10-01T22:41:52.116Z,101437.72
2022-10-01T22:44:23.233Z,101431.81
2022-10-01T22:47:24.759Z,101449.47
2022-10-01T22:50:20.957Z,101446.88
2022-10-01T22:53:03.612Z,101457.38
2022-10-01T22:55:42.369Z,101456.53
2022-10-01T22:58:39.090Z,101458.19
2022-10-01T23:01:18.490Z,101465.13
2022-10-01T23:03:59.106Z,101461.56
2022-10-01T23:06:40.470Z,101463.25
2022-10-01T23:09:15.852Z,101464.09
2022-10-01T23:11:54.814Z,101462.25
2022-10-01T23:14:45.718Z,101466.63
2022-10-01T23:17:21.088Z,101475.41
2022-10-01T23:20:04.405Z,101471.94
2022-10-01T23:23:01.560Z,101473.72
2022-10-01T23:25:46.848Z,101477.31
2022-10-01T23:28:25.670Z,101477.41
2022-10-01T23:31:06.922Z,101473.94
2022-10-01T23:33:57.853Z,101486.22
2022-10-01T23:36:35.847Z,101482.72
2022-10-01T23:39:30.904Z,101482.81
2022-10-01T23:42:05.849Z,101475.78
2022-10-01T23:44:41.069Z,101484.66
2022-10-01T23:47:16.663Z,101486.41
2022-10-01T23:49:54.719Z,101487.22
2022-10-01T23:52:32.359Z,101492.50
2022-10-01T23:55:21.027Z,101495.25
2022-10-01T23:58:00.931Z,101494.38
